La Palma > ESTACION METEOROLÓGICA Aeropuerto - La Palma

DATOS ACTUALES Online

Ultima actulizacion 49 minutos

21.8 ºC

Temperatura

96

Humedad (%)

1013.7

Presión (mb)

54.2

Precipitación (mm)

2.5 SO

Viento (Km/h)

DATOS DIARIOS

Temperatura últimas 24 horas (ºC)

Humedad últimas 24 horas (%)

Presión atmosférica últimas 24 horas (mb)

Precipitaciones últimas 23 horas (mm)

Viento últimas 24 horas (Km/h)

Hora Temperatura (°C) ºC Precipitación (mm) mm Presión (mb) mb Humedad (%) % Viento (Km/h) km/h
24 - 22:00 24 0 1016 68 4.5 NW
24 - 23:00 23.7 0 1016 63 4.2 NW
25 - 00:00 23.3 0 1017 64 3.2 W
25 - 01:00 23.8 0 1017 66 2.7 NW
25 - 02:00 23.2 0 1016 72 3.4 NW
25 - 03:00 23.3 0 1016 69 3.8 W
25 - 04:00 23.3 0 1015 66 2.8 W
25 - 05:00 23 0 1015 67 2.9 W
25 - 06:00 23.4 0 1014 65 4 W
25 - 07:00 23.4 0 1014 66 3.4 W
25 - 08:00 23.4 0 1015 75 2.4 NO
25 - 09:00 22 0.3 1015 82 3.9 W
25 - 10:00 22.4 0.3 1016 79 4.1 W
25 - 11:00 21.9 0.4 1017 82 4.1 W
25 - 12:00 21.2 4.5 1017 91 3.9 N
25 - 13:00 20.9 6.7 1017 94 1.6 NW
25 - 14:00 21.9 8.9 1016 91 2.3 N
25 - 15:00 20.9 12 1015 95 2.9 NW
25 - 16:00 21.5 13.4 1014 93 2.3 NW
25 - 17:00 21.8 14.5 1014 92 2.7 NW
25 - 18:00 22.1 16 1014 91 1.6 NW
25 - 19:00 22 19.1 1014 95 3.3 NO
25 - 20:00 21.6 28 1014 96 1.4 W
25 - 21:00 21.3 39.4 1014 97 1.5 W
25 - 22:00 21.8 54.2 1014 96 2.5 SO
Apalmet utiliza cookies propias y de terceros para mejorar la usabilidad y la experiencia web. Política de cookies.